sensor_id;sensor_type;location;lat;lon;timestamp;P1;durP1;ratioP1;P2;durP2;ratioP2
3881;SDS011;1956;53.482;10.238;2023-03-04T00:02:33;19.73;;;3.50;;
3881;SDS011;1956;53.482;10.238;2023-03-04T00:07:33;17.33;;;3.43;;
3881;SDS011;1956;53.482;10.238;2023-03-04T00:12:34;18.43;;;4.00;;
3881;SDS011;1956;53.482;10.238;2023-03-04T00:17:34;20.67;;;3.70;;
3881;SDS011;1956;53.482;10.238;2023-03-04T00:22:35;16.20;;;3.17;;
3881;SDS011;1956;53.482;10.238;2023-03-04T00:27:35;12.23;;;2.20;;
3881;SDS011;1956;53.482;10.238;2023-03-04T00:32:35;12.87;;;3.50;;
3881;SDS011;1956;53.482;10.238;2023-03-04T00:37:36;12.30;;;2.90;;
3881;SDS011;1956;53.482;10.238;2023-03-04T00:42:36;9.63;;;3.03;;
3881;SDS011;1956;53.482;10.238;2023-03-04T00:47:36;7.20;;;2.30;;
3881;SDS011;1956;53.482;10.238;2023-03-04T00:52:37;9.03;;;3.10;;
3881;SDS011;1956;53.482;10.238;2023-03-04T00:57:37;3.43;;;1.87;;
3881;SDS011;1956;53.482;10.238;2023-03-04T01:02:37;11.53;;;2.60;;
3881;SDS011;1956;53.482;10.238;2023-03-04T01:07:38;5.57;;;2.03;;
3881;SDS011;1956;53.482;10.238;2023-03-04T01:12:38;5.17;;;1.80;;
3881;SDS011;1956;53.482;10.238;2023-03-04T01:17:41;7.53;;;2.00;;
3881;SDS011;1956;53.482;10.238;2023-03-04T01:22:42;8.83;;;2.80;;
3881;SDS011;1956;53.482;10.238;2023-03-04T01:27:42;8.10;;;2.30;;
3881;SDS011;1956;53.482;10.238;2023-03-04T01:32:42;10.23;;;1.60;;
3881;SDS011;1956;53.482;10.238;2023-03-04T01:37:43;7.43;;;1.97;;
3881;SDS011;1956;53.482;10.238;2023-03-04T01:42:43;5.10;;;1.60;;
3881;SDS011;1956;53.482;10.238;2023-03-04T01:47:44;4.80;;;1.60;;
3881;SDS011;1956;53.482;10.238;2023-03-04T01:52:48;12.00;;;2.10;;
3881;SDS011;1956;53.482;10.238;2023-03-04T01:57:49;10.13;;;1.70;;
3881;SDS011;1956;53.482;10.238;2023-03-04T02:02:52;8.30;;;1.30;;
3881;SDS011;1956;53.482;10.238;2023-03-04T02:07:53;8.13;;;1.50;;
3881;SDS011;1956;53.482;10.238;2023-03-04T02:12:55;7.73;;;1.70;;
3881;SDS011;1956;53.482;10.238;2023-03-04T02:17:56;9.67;;;1.57;;
3881;SDS011;1956;53.482;10.238;2023-03-04T02:28:41;9.17;;;1.60;;
3881;SDS011;1956;53.482;10.238;2023-03-04T02:33:42;2.90;;;1.10;;
3881;SDS011;1956;53.482;10.238;2023-03-04T02:38:42;14.00;;;1.67;;
3881;SDS011;1956;53.482;10.238;2023-03-04T02:43:44;6.37;;;2.53;;
3881;SDS011;1956;53.482;10.238;2023-03-04T02:48:45;8.73;;;2.00;;
3881;SDS011;1956;53.482;10.238;2023-03-04T02:53:45;5.63;;;1.40;;
3881;SDS011;1956;53.482;10.238;2023-03-04T02:58:46;5.50;;;1.50;;
3881;SDS011;1956;53.482;10.238;2023-03-04T03:03:46;10.40;;;1.50;;
3881;SDS011;1956;53.482;10.238;2023-03-04T03:08:46;16.63;;;1.93;;
3881;SDS011;1956;53.482;10.238;2023-03-04T03:13:47;4.10;;;1.40;;
3881;SDS011;1956;53.482;10.238;2023-03-04T03:18:47;8.13;;;1.97;;
3881;SDS011;1956;53.482;10.238;2023-03-04T03:23:48;18.57;;;2.43;;
3881;SDS011;1956;53.482;10.238;2023-03-04T03:28:48;7.57;;;2.03;;
3881;SDS011;1956;53.482;10.238;2023-03-04T03:33:49;6.97;;;1.90;;
3881;SDS011;1956;53.482;10.238;2023-03-04T03:38:49;8.80;;;1.83;;
3881;SDS011;1956;53.482;10.238;2023-03-04T03:43:49;18.50;;;2.77;;
3881;SDS011;1956;53.482;10.238;2023-03-04T03:48:50;12.77;;;1.67;;
3881;SDS011;1956;53.482;10.238;2023-03-04T03:53:50;6.60;;;2.10;;
3881;SDS011;1956;53.482;10.238;2023-03-04T03:58:50;10.03;;;2.07;;
3881;SDS011;1956;53.482;10.238;2023-03-04T04:03:51;6.77;;;1.87;;
3881;SDS011;1956;53.482;10.238;2023-03-04T04:08:51;10.83;;;1.73;;
3881;SDS011;1956;53.482;10.238;2023-03-04T04:13:52;13.23;;;2.63;;
3881;SDS011;1956;53.482;10.238;2023-03-04T04:18:52;5.40;;;1.53;;
3881;SDS011;1956;53.482;10.238;2023-03-04T04:23:52;2.13;;;1.07;;
3881;SDS011;1956;53.482;10.238;2023-03-04T04:28:53;9.07;;;1.80;;
3881;SDS011;1956;53.482;10.238;2023-03-04T04:33:53;9.23;;;2.30;;
3881;SDS011;1956;53.482;10.238;2023-03-04T04:38:54;9.40;;;1.73;;
3881;SDS011;1956;53.482;10.238;2023-03-04T04:43:54;10.43;;;1.83;;
3881;SDS011;1956;53.482;10.238;2023-03-04T04:48:54;7.17;;;2.10;;
3881;SDS011;1956;53.482;10.238;2023-03-04T04:53:55;11.37;;;2.10;;
3881;SDS011;1956;53.482;10.238;2023-03-04T04:58:57;6.77;;;1.87;;
3881;SDS011;1956;53.482;10.238;2023-03-04T05:03:58;5.80;;;1.57;;
3881;SDS011;1956;53.482;10.238;2023-03-04T05:08:59;8.23;;;1.80;;
3881;SDS011;1956;53.482;10.238;2023-03-04T05:13:59;7.30;;;1.77;;
3881;SDS011;1956;53.482;10.238;2023-03-04T05:18:59;8.37;;;2.00;;
3881;SDS011;1956;53.482;10.238;2023-03-04T05:24:00;6.10;;;2.00;;
3881;SDS011;1956;53.482;10.238;2023-03-04T05:29:00;7.60;;;1.77;;
3881;SDS011;1956;53.482;10.238;2023-03-04T05:34:00;10.50;;;2.07;;
3881;SDS011;1956;53.482;10.238;2023-03-04T05:39:01;13.30;;;1.60;;
3881;SDS011;1956;53.482;10.238;2023-03-04T05:44:01;9.00;;;1.90;;
3881;SDS011;1956;53.482;10.238;2023-03-04T05:49:02;16.10;;;1.90;;
3881;SDS011;1956;53.482;10.238;2023-03-04T05:54:02;8.63;;;1.40;;
3881;SDS011;1956;53.482;10.238;2023-03-04T05:59:02;5.03;;;1.80;;
3881;SDS011;1956;53.482;10.238;2023-03-04T06:04:03;7.93;;;2.00;;
3881;SDS011;1956;53.482;10.238;2023-03-04T06:09:03;21.77;;;2.67;;
3881;SDS011;1956;53.482;10.238;2023-03-04T06:14:04;9.40;;;2.63;;
3881;SDS011;1956;53.482;10.238;2023-03-04T06:19:04;22.07;;;2.20;;
3881;SDS011;1956;53.482;10.238;2023-03-04T06:24:05;12.10;;;2.43;;
3881;SDS011;1956;53.482;10.238;2023-03-04T06:29:05;12.27;;;2.30;;
3881;SDS011;1956;53.482;10.238;2023-03-04T06:34:09;26.87;;;3.20;;
3881;SDS011;1956;53.482;10.238;2023-03-04T06:39:09;21.63;;;2.80;;
3881;SDS011;1956;53.482;10.238;2023-03-04T06:44:10;15.63;;;3.13;;
3881;SDS011;1956;53.482;10.238;2023-03-04T06:49:10;19.90;;;3.03;;
3881;SDS011;1956;53.482;10.238;2023-03-04T06:54:11;34.43;;;3.87;;
3881;SDS011;1956;53.482;10.238;2023-03-04T06:59:11;13.00;;;2.97;;
3881;SDS011;1956;53.482;10.238;2023-03-04T07:04:12;30.87;;;4.17;;
3881;SDS011;1956;53.482;10.238;2023-03-04T07:09:12;19.13;;;2.43;;
3881;SDS011;1956;53.482;10.238;2023-03-04T07:14:13;15.53;;;2.70;;
3881;SDS011;1956;53.482;10.238;2023-03-04T07:19:13;17.83;;;2.77;;
3881;SDS011;1956;53.482;10.238;2023-03-04T07:24:13;10.40;;;2.90;;
3881;SDS011;1956;53.482;10.238;2023-03-04T07:29:14;21.47;;;3.90;;
3881;SDS011;1956;53.482;10.238;2023-03-04T07:34:14;18.93;;;2.60;;
3881;SDS011;1956;53.482;10.238;2023-03-04T07:39:15;14.10;;;2.30;;
3881;SDS011;1956;53.482;10.238;2023-03-04T07:44:15;7.27;;;1.93;;
3881;SDS011;1956;53.482;10.238;2023-03-04T07:49:15;8.80;;;2.27;;
3881;SDS011;1956;53.482;10.238;2023-03-04T07:54:16;12.10;;;3.03;;
3881;SDS011;1956;53.482;10.238;2023-03-04T07:59:19;12.53;;;2.00;;
3881;SDS011;1956;53.482;10.238;2023-03-04T08:04:19;13.10;;;2.70;;
3881;SDS011;1956;53.482;10.238;2023-03-04T08:09:19;14.00;;;2.40;;
3881;SDS011;1956;53.482;10.238;2023-03-04T08:14:20;19.70;;;3.17;;
3881;SDS011;1956;53.482;10.238;2023-03-04T08:19:20;14.87;;;2.50;;
3881;SDS011;1956;53.482;10.238;2023-03-04T08:24:20;9.57;;;2.70;;
3881;SDS011;1956;53.482;10.238;2023-03-04T08:29:21;18.33;;;3.43;;
3881;SDS011;1956;53.482;10.238;2023-03-04T08:34:24;24.27;;;3.23;;
3881;SDS011;1956;53.482;10.238;2023-03-04T08:39:25;18.83;;;4.10;;
3881;SDS011;1956;53.482;10.238;2023-03-04T08:44:25;16.60;;;3.50;;
3881;SDS011;1956;53.482;10.238;2023-03-04T08:49:26;22.17;;;4.30;;
3881;SDS011;1956;53.482;10.238;2023-03-04T08:54:26;21.07;;;3.80;;
3881;SDS011;1956;53.482;10.238;2023-03-04T08:59:27;20.70;;;3.83;;
3881;SDS011;1956;53.482;10.238;2023-03-04T09:04:27;18.67;;;2.97;;
3881;SDS011;1956;53.482;10.238;2023-03-04T09:09:27;24.97;;;2.90;;
3881;SDS011;1956;53.482;10.238;2023-03-04T09:14:28;17.97;;;4.57;;
3881;SDS011;1956;53.482;10.238;2023-03-04T09:19:28;16.83;;;3.53;;
3881;SDS011;1956;53.482;10.238;2023-03-04T09:24:29;16.70;;;4.00;;
3881;SDS011;1956;53.482;10.238;2023-03-04T09:29:29;30.87;;;5.13;;
3881;SDS011;1956;53.482;10.238;2023-03-04T09:34:29;27.00;;;4.57;;
3881;SDS011;1956;53.482;10.238;2023-03-04T09:39:30;18.10;;;2.80;;
3881;SDS011;1956;53.482;10.238;2023-03-04T09:44:38;32.30;;;3.27;;
3881;SDS011;1956;53.482;10.238;2023-03-04T09:49:41;13.20;;;3.37;;
3881;SDS011;1956;53.482;10.238;2023-03-04T10:00:12;21.00;;;3.17;;
3881;SDS011;1956;53.482;10.238;2023-03-04T10:05:19;19.03;;;3.13;;
3881;SDS011;1956;53.482;10.238;2023-03-04T10:10:21;15.67;;;3.53;;
3881;SDS011;1956;53.482;10.238;2023-03-04T10:20:54;17.67;;;3.90;;
3881;SDS011;1956;53.482;10.238;2023-03-04T10:25:58;21.27;;;4.23;;
3881;SDS011;1956;53.482;10.238;2023-03-04T10:31:35;14.97;;;3.00;;
3881;SDS011;1956;53.482;10.238;2023-03-04T10:36:36;22.53;;;4.50;;
3881;SDS011;1956;53.482;10.238;2023-03-04T10:41:43;30.97;;;3.87;;
3881;SDS011;1956;53.482;10.238;2023-03-04T10:46:46;25.77;;;4.77;;
3881;SDS011;1956;53.482;10.238;2023-03-04T10:52:30;18.37;;;3.90;;
3881;SDS011;1956;53.482;10.238;2023-03-04T10:57:38;17.03;;;3.40;;
3881;SDS011;1956;53.482;10.238;2023-03-04T11:02:40;21.50;;;4.00;;
3881;SDS011;1956;53.482;10.238;2023-03-04T11:07:42;20.97;;;3.23;;
3881;SDS011;1956;53.482;10.238;2023-03-04T11:12:51;28.03;;;4.13;;
3881;SDS011;1956;53.482;10.238;2023-03-04T11:17:56;17.60;;;3.63;;
3881;SDS011;1956;53.482;10.238;2023-03-04T11:23:05;16.47;;;4.00;;
3881;SDS011;1956;53.482;10.238;2023-03-04T11:28:18;25.87;;;4.13;;
3881;SDS011;1956;53.482;10.238;2023-03-04T11:33:41;11.33;;;2.83;;
3881;SDS011;1956;53.482;10.238;2023-03-04T11:38:46;24.87;;;3.90;;
3881;SDS011;1956;53.482;10.238;2023-03-04T11:43:47;18.83;;;4.13;;
3881;SDS011;1956;53.482;10.238;2023-03-04T11:49:10;23.30;;;3.70;;
3881;SDS011;1956;53.482;10.238;2023-03-04T11:54:46;16.37;;;3.37;;
3881;SDS011;1956;53.482;10.238;2023-03-04T12:01:14;29.10;;;3.50;;
3881;SDS011;1956;53.482;10.238;2023-03-04T12:12:20;23.87;;;2.80;;
3881;SDS011;1956;53.482;10.238;2023-03-04T12:18:06;23.03;;;3.87;;
3881;SDS011;1956;53.482;10.238;2023-03-04T12:35:15;11.57;;;3.07;;
3881;SDS011;1956;53.482;10.238;2023-03-04T12:40:42;21.93;;;3.57;;
3881;SDS011;1956;53.482;10.238;2023-03-04T12:57:27;24.03;;;3.80;;
3881;SDS011;1956;53.482;10.238;2023-03-04T13:03:55;24.70;;;3.23;;
3881;SDS011;1956;53.482;10.238;2023-03-04T13:08:28;26.97;;;3.60;;
3881;SDS011;1956;53.482;10.238;2023-03-04T13:13:35;16.80;;;3.60;;
3881;SDS011;1956;53.482;10.238;2023-03-04T13:18:40;24.27;;;3.63;;
3881;SDS011;1956;53.482;10.238;2023-03-04T13:23:41;12.93;;;3.80;;
3881;SDS011;1956;53.482;10.238;2023-03-04T13:28:41;20.20;;;3.00;;
3881;SDS011;1956;53.482;10.238;2023-03-04T13:33:46;28.37;;;4.80;;
3881;SDS011;1956;53.482;10.238;2023-03-04T13:38:55;17.77;;;3.70;;
3881;SDS011;1956;53.482;10.238;2023-03-04T13:44:01;14.47;;;3.73;;
3881;SDS011;1956;53.482;10.238;2023-03-04T13:49:02;21.50;;;4.10;;
3881;SDS011;1956;53.482;10.238;2023-03-04T13:54:24;11.80;;;3.60;;
3881;SDS011;1956;53.482;10.238;2023-03-04T14:04:59;16.83;;;3.70;;
3881;SDS011;1956;53.482;10.238;2023-03-04T14:10:04;21.63;;;4.57;;
3881;SDS011;1956;53.482;10.238;2023-03-04T14:15:31;28.47;;;3.43;;
3881;SDS011;1956;53.482;10.238;2023-03-04T14:20:35;13.77;;;2.87;;
3881;SDS011;1956;53.482;10.238;2023-03-04T14:25:36;13.93;;;3.83;;
3881;SDS011;1956;53.482;10.238;2023-03-04T14:30:37;16.03;;;4.10;;
3881;SDS011;1956;53.482;10.238;2023-03-04T14:35:38;15.57;;;2.60;;
3881;SDS011;1956;53.482;10.238;2023-03-04T14:40:43;16.97;;;3.97;;
3881;SDS011;1956;53.482;10.238;2023-03-04T14:45:45;19.53;;;3.20;;
3881;SDS011;1956;53.482;10.238;2023-03-04T14:50:48;16.53;;;3.60;;
3881;SDS011;1956;53.482;10.238;2023-03-04T14:55:57;16.07;;;4.03;;
3881;SDS011;1956;53.482;10.238;2023-03-04T15:01:18;12.33;;;3.73;;
3881;SDS011;1956;53.482;10.238;2023-03-04T15:06:21;15.83;;;3.30;;
3881;SDS011;1956;53.482;10.238;2023-03-04T15:11:23;12.90;;;3.57;;
3881;SDS011;1956;53.482;10.238;2023-03-04T15:16:27;18.13;;;3.00;;
3881;SDS011;1956;53.482;10.238;2023-03-04T15:21:31;14.50;;;3.10;;
3881;SDS011;1956;53.482;10.238;2023-03-04T15:26:40;17.60;;;2.57;;
3881;SDS011;1956;53.482;10.238;2023-03-04T15:31:41;12.67;;;3.00;;
3881;SDS011;1956;53.482;10.238;2023-03-04T15:36:43;9.63;;;3.03;;
3881;SDS011;1956;53.482;10.238;2023-03-04T15:41:45;20.57;;;3.30;;
3881;SDS011;1956;53.482;10.238;2023-03-04T15:46:47;12.90;;;2.47;;
3881;SDS011;1956;53.482;10.238;2023-03-04T15:51:47;16.23;;;3.20;;
3881;SDS011;1956;53.482;10.238;2023-03-04T15:56:49;15.00;;;3.00;;
3881;SDS011;1956;53.482;10.238;2023-03-04T16:01:49;10.90;;;2.87;;
3881;SDS011;1956;53.482;10.238;2023-03-04T16:06:49;25.27;;;2.70;;
3881;SDS011;1956;53.482;10.238;2023-03-04T16:11:50;13.50;;;3.30;;
3881;SDS011;1956;53.482;10.238;2023-03-04T16:16:52;16.70;;;3.00;;
3881;SDS011;1956;53.482;10.238;2023-03-04T16:21:52;19.73;;;2.97;;
3881;SDS011;1956;53.482;10.238;2023-03-04T16:26:53;10.03;;;2.07;;
3881;SDS011;1956;53.482;10.238;2023-03-04T16:31:53;14.50;;;2.70;;
3881;SDS011;1956;53.482;10.238;2023-03-04T16:36:53;18.47;;;2.90;;
3881;SDS011;1956;53.482;10.238;2023-03-04T16:41:54;9.87;;;2.20;;
3881;SDS011;1956;53.482;10.238;2023-03-04T16:46:54;18.33;;;2.83;;
3881;SDS011;1956;53.482;10.238;2023-03-04T16:51:55;13.87;;;2.27;;
3881;SDS011;1956;53.482;10.238;2023-03-04T16:56:56;12.40;;;3.27;;
3881;SDS011;1956;53.482;10.238;2023-03-04T17:01:57;16.10;;;2.97;;
3881;SDS011;1956;53.482;10.238;2023-03-04T17:06:58;9.13;;;2.40;;
3881;SDS011;1956;53.482;10.238;2023-03-04T17:11:58;22.57;;;2.83;;
3881;SDS011;1956;53.482;10.238;2023-03-04T17:16:59;11.03;;;2.40;;
3881;SDS011;1956;53.482;10.238;2023-03-04T17:22:00;16.13;;;3.63;;
3881;SDS011;1956;53.482;10.238;2023-03-04T17:27:00;10.23;;;2.70;;
3881;SDS011;1956;53.482;10.238;2023-03-04T17:32:01;9.67;;;2.37;;
3881;SDS011;1956;53.482;10.238;2023-03-04T17:37:01;7.53;;;2.50;;
3881;SDS011;1956;53.482;10.238;2023-03-04T17:42:01;12.33;;;2.10;;
3881;SDS011;1956;53.482;10.238;2023-03-04T17:47:02;20.20;;;2.53;;
3881;SDS011;1956;53.482;10.238;2023-03-04T17:52:03;19.23;;;2.80;;
3881;SDS011;1956;53.482;10.238;2023-03-04T17:57:04;18.47;;;3.43;;
3881;SDS011;1956;53.482;10.238;2023-03-04T18:02:05;8.00;;;3.40;;
3881;SDS011;1956;53.482;10.238;2023-03-04T18:07:05;10.27;;;2.53;;
3881;SDS011;1956;53.482;10.238;2023-03-04T18:12:05;9.43;;;1.60;;
3881;SDS011;1956;53.482;10.238;2023-03-04T18:17:06;9.93;;;2.80;;
3881;SDS011;1956;53.482;10.238;2023-03-04T18:22:06;17.20;;;2.40;;
3881;SDS011;1956;53.482;10.238;2023-03-04T18:27:07;8.57;;;2.20;;
3881;SDS011;1956;53.482;10.238;2023-03-04T18:32:07;8.03;;;2.00;;
3881;SDS011;1956;53.482;10.238;2023-03-04T18:37:07;6.93;;;1.70;;
3881;SDS011;1956;53.482;10.238;2023-03-04T18:42:08;14.53;;;2.50;;
3881;SDS011;1956;53.482;10.238;2023-03-04T18:47:08;7.53;;;2.27;;
3881;SDS011;1956;53.482;10.238;2023-03-04T18:52:10;12.13;;;2.13;;
3881;SDS011;1956;53.482;10.238;2023-03-04T18:57:11;11.40;;;3.77;;
3881;SDS011;1956;53.482;10.238;2023-03-04T19:02:17;5.10;;;1.87;;
3881;SDS011;1956;53.482;10.238;2023-03-04T19:07:21;8.53;;;2.70;;
3881;SDS011;1956;53.482;10.238;2023-03-04T19:12:22;13.67;;;3.77;;
3881;SDS011;1956;53.482;10.238;2023-03-04T19:17:23;18.63;;;3.50;;
3881;SDS011;1956;53.482;10.238;2023-03-04T19:22:24;10.63;;;1.93;;
3881;SDS011;1956;53.482;10.238;2023-03-04T19:27:25;7.80;;;2.13;;
3881;SDS011;1956;53.482;10.238;2023-03-04T19:32:25;9.10;;;2.27;;
3881;SDS011;1956;53.482;10.238;2023-03-04T19:37:26;8.53;;;2.23;;
3881;SDS011;1956;53.482;10.238;2023-03-04T19:42:26;10.97;;;2.80;;
3881;SDS011;1956;53.482;10.238;2023-03-04T19:47:26;8.63;;;2.00;;
3881;SDS011;1956;53.482;10.238;2023-03-04T19:52:27;11.87;;;1.80;;
3881;SDS011;1956;53.482;10.238;2023-03-04T19:57:27;8.83;;;1.70;;
3881;SDS011;1956;53.482;10.238;2023-03-04T20:02:27;15.57;;;2.10;;
3881;SDS011;1956;53.482;10.238;2023-03-04T20:07:28;4.97;;;1.83;;
3881;SDS011;1956;53.482;10.238;2023-03-04T20:12:28;14.90;;;1.80;;
3881;SDS011;1956;53.482;10.238;2023-03-04T20:17:30;6.23;;;1.37;;
3881;SDS011;1956;53.482;10.238;2023-03-04T20:22:30;9.50;;;1.77;;
3881;SDS011;1956;53.482;10.238;2023-03-04T20:27:30;8.00;;;1.20;;
3881;SDS011;1956;53.482;10.238;2023-03-04T20:32:31;8.13;;;2.10;;
3881;SDS011;1956;53.482;10.238;2023-03-04T20:37:31;6.53;;;1.50;;
3881;SDS011;1956;53.482;10.238;2023-03-04T20:42:32;7.00;;;1.80;;
3881;SDS011;1956;53.482;10.238;2023-03-04T20:47:32;9.50;;;1.80;;
3881;SDS011;1956;53.482;10.238;2023-03-04T20:52:33;4.90;;;1.67;;
3881;SDS011;1956;53.482;10.238;2023-03-04T20:57:33;9.70;;;2.17;;
3881;SDS011;1956;53.482;10.238;2023-03-04T21:02:33;4.10;;;1.80;;
3881;SDS011;1956;53.482;10.238;2023-03-04T21:07:34;6.00;;;2.00;;
3881;SDS011;1956;53.482;10.238;2023-03-04T21:12:34;13.40;;;2.53;;
3881;SDS011;1956;53.482;10.238;2023-03-04T21:17:34;7.23;;;1.80;;
3881;SDS011;1956;53.482;10.238;2023-03-04T21:22:35;3.43;;;1.50;;
3881;SDS011;1956;53.482;10.238;2023-03-04T21:27:35;10.97;;;2.00;;
3881;SDS011;1956;53.482;10.238;2023-03-04T21:32:41;9.00;;;2.03;;
3881;SDS011;1956;53.482;10.238;2023-03-04T21:37:41;3.70;;;2.00;;
3881;SDS011;1956;53.482;10.238;2023-03-04T21:42:42;5.63;;;1.90;;
3881;SDS011;1956;53.482;10.238;2023-03-04T21:47:42;9.17;;;2.13;;
3881;SDS011;1956;53.482;10.238;2023-03-04T21:52:42;9.60;;;3.50;;
3881;SDS011;1956;53.482;10.238;2023-03-04T21:57:43;9.80;;;1.97;;
3881;SDS011;1956;53.482;10.238;2023-03-04T22:02:43;10.13;;;2.00;;
3881;SDS011;1956;53.482;10.238;2023-03-04T22:07:43;9.80;;;2.10;;
3881;SDS011;1956;53.482;10.238;2023-03-04T22:12:44;10.60;;;2.57;;
3881;SDS011;1956;53.482;10.238;2023-03-04T22:17:44;11.33;;;2.30;;
3881;SDS011;1956;53.482;10.238;2023-03-04T22:22:45;8.10;;;2.20;;
3881;SDS011;1956;53.482;10.238;2023-03-04T22:27:45;6.83;;;1.53;;
3881;SDS011;1956;53.482;10.238;2023-03-04T22:32:46;13.33;;;1.87;;
3881;SDS011;1956;53.482;10.238;2023-03-04T22:37:47;3.00;;;1.30;;
3881;SDS011;1956;53.482;10.238;2023-03-04T22:42:47;12.10;;;1.80;;
3881;SDS011;1956;53.482;10.238;2023-03-04T22:47:49;7.00;;;1.50;;
3881;SDS011;1956;53.482;10.238;2023-03-04T22:52:50;7.77;;;1.50;;
3881;SDS011;1956;53.482;10.238;2023-03-04T22:57:51;9.60;;;1.50;;
3881;SDS011;1956;53.482;10.238;2023-03-04T23:02:51;3.67;;;1.30;;
3881;SDS011;1956;53.482;10.238;2023-03-04T23:07:51;6.77;;;2.37;;
3881;SDS011;1956;53.482;10.238;2023-03-04T23:12:52;4.60;;;1.50;;
3881;SDS011;1956;53.482;10.238;2023-03-04T23:17:53;7.90;;;1.80;;
3881;SDS011;1956;53.482;10.238;2023-03-04T23:22:53;11.47;;;2.87;;
3881;SDS011;1956;53.482;10.238;2023-03-04T23:27:54;5.10;;;1.27;;
3881;SDS011;1956;53.482;10.238;2023-03-04T23:32:55;9.13;;;1.30;;
3881;SDS011;1956;53.482;10.238;2023-03-04T23:37:55;7.87;;;1.87;;
3881;SDS011;1956;53.482;10.238;2023-03-04T23:42:56;7.93;;;2.20;;
3881;SDS011;1956;53.482;10.238;2023-03-04T23:47:56;7.30;;;1.70;;
3881;SDS011;1956;53.482;10.238;2023-03-04T23:52:56;10.43;;;1.50;;
3881;SDS011;1956;53.482;10.238;2023-03-04T23:57:57;14.00;;;2.07;;
